createdAt,value
2019-04-16T00:01:58.588Z,5.65
2019-04-16T00:24:26.818Z,5.25
2019-04-16T00:32:38.804Z,5.21
2019-04-16T00:35:10.156Z,5.19
2019-04-16T00:37:40.604Z,5.16
2019-04-16T00:40:29.873Z,5.11
2019-04-16T00:43:03.108Z,5.00
2019-04-16T00:46:12.656Z,4.94
2019-04-16T00:49:01.961Z,4.94
2019-04-16T00:51:32.201Z,4.93
2019-04-16T00:54:21.502Z,4.91
2019-04-16T00:56:51.738Z,4.85
2019-04-16T00:59:41.375Z,4.80
2019-04-16T01:02:16.932Z,4.77
2019-04-16T01:05:06.658Z,4.66
2019-04-16T01:07:55.983Z,4.68
2019-04-16T01:10:27.227Z,4.64
2019-04-16T01:13:16.515Z,4.62
2019-04-16T01:16:07.105Z,4.57
2019-04-16T01:18:56.423Z,4.50
2019-04-16T01:21:27.070Z,4.45
2019-04-16T01:24:17.615Z,4.39
2019-04-16T01:26:59.476Z,4.40
2019-04-16T01:29:33.562Z,4.32
2019-04-16T01:32:43.401Z,4.29
2019-04-16T01:35:32.947Z,4.30
2019-04-16T01:38:41.149Z,4.19
2019-04-16T01:41:30.847Z,4.13
2019-04-16T01:44:20.152Z,4.07
2019-04-16T01:47:09.738Z,4.02
2019-04-16T01:49:42.212Z,4.05
2019-04-16T01:52:12.150Z,3.97
2019-04-16T01:54:42.836Z,3.95
2019-04-16T01:57:32.159Z,3.94
2019-04-16T02:00:06.967Z,3.91
2019-04-16T02:02:34.615Z,3.90
2019-04-16T02:05:05.353Z,3.90
2019-04-16T02:07:59.265Z,3.89
2019-04-16T02:10:49.522Z,3.94
2019-04-16T02:13:19.810Z,3.96
2019-04-16T02:16:09.145Z,3.97
2019-04-16T02:19:00.963Z,4.01
2019-04-16T02:21:49.774Z,3.93
2019-04-16T02:24:39.042Z,3.88
2019-04-16T02:27:23.510Z,3.85
2019-04-16T02:30:05.904Z,3.85
2019-04-16T02:32:36.363Z,3.81
2019-04-16T02:35:25.791Z,3.65
2019-04-16T02:38:15.168Z,3.61
2019-04-16T02:40:51.619Z,3.54
2019-04-16T02:43:41.020Z,3.49
2019-04-16T02:46:34.360Z,3.43
2019-04-16T02:49:16.097Z,3.38
2019-04-16T02:52:24.269Z,3.34
2019-04-16T02:55:44.175Z,3.32
2019-04-16T03:01:31.792Z,3.25
2019-04-16T03:07:18.188Z,3.19
2019-04-16T03:10:00.604Z,3.10
2019-04-16T03:12:42.150Z,3.07
2019-04-16T03:15:51.670Z,3.03
2019-04-16T03:18:47.541Z,3.00
2019-04-16T03:21:17.895Z,3.02
2019-04-16T03:24:09.679Z,3.01
2019-04-16T03:26:44.082Z,3.00
2019-04-16T03:29:32.805Z,2.94
2019-04-16T03:32:03.122Z,2.99
2019-04-16T03:34:34.164Z,2.97
2019-04-16T03:37:23.454Z,2.99
2019-04-16T03:39:53.778Z,3.10
2019-04-16T03:45:44.052Z,2.99
2019-04-16T03:48:56.174Z,3.06
2019-04-16T03:54:42.027Z,2.89
2019-04-16T03:57:39.360Z,2.86
2019-04-16T04:00:28.963Z,2.19
2019-04-16T04:02:59.581Z,2.76
2019-04-16T04:05:35.153Z,2.78
2019-04-16T04:08:04.512Z,2.69
2019-04-16T04:10:37.113Z,2.65
2019-04-16T04:13:25.886Z,2.65
2019-04-16T04:15:58.543Z,2.64
2019-04-16T04:18:28.348Z,2.63
2019-04-16T04:21:27.249Z,2.58
2019-04-16T04:24:16.527Z,2.60
2019-04-16T04:27:13.075Z,2.54
2019-04-16T04:29:58.865Z,2.58
2019-04-16T04:32:29.215Z,2.56
2019-04-16T04:34:59.806Z,2.52
2019-04-16T04:37:49.113Z,2.51
2019-04-16T04:40:19.438Z,2.50
2019-04-16T04:42:50.086Z,2.56
2019-04-16T04:45:21.850Z,2.54
2019-04-16T04:47:52.372Z,2.54
2019-04-16T04:50:23.982Z,2.56
2019-04-16T04:52:54.288Z,2.57
2019-04-16T04:55:26.907Z,2.56
2019-04-16T04:57:57.049Z,2.61
2019-04-16T05:00:27.320Z,2.62
2019-04-16T05:03:38.546Z,2.59
2019-04-16T05:06:30.874Z,2.60
2019-04-16T05:09:01.483Z,2.66
2019-04-16T05:11:32.156Z,2.77
2019-04-16T05:14:02.433Z,2.77
2019-04-16T05:16:52.178Z,2.75
2019-04-16T05:19:22.491Z,2.77
2019-04-16T05:21:54.970Z,2.79
2019-04-16T05:24:29.201Z,2.86
2019-04-16T05:27:10.277Z,2.89
2019-04-16T05:29:40.656Z,2.96
2019-04-16T05:32:11.308Z,2.95
2019-04-16T05:34:41.809Z,3.08
2019-04-16T05:37:12.435Z,3.17
2019-04-16T05:39:42.964Z,3.21
2019-04-16T05:42:13.642Z,3.25
2019-04-16T05:45:17.184Z,3.30
2019-04-16T05:47:34.972Z,2.99
2019-04-16T05:50:06.303Z,3.56
2019-04-16T05:52:36.946Z,3.68
2019-04-16T05:58:03.927Z,3.84
2019-04-16T06:01:13.679Z,3.95
2019-04-16T06:03:44.123Z,4.07
2019-04-16T06:06:18.755Z,4.21
2019-04-16T06:08:50.633Z,4.34
2019-04-16T06:11:46.098Z,4.50
2019-04-16T06:14:35.575Z,4.62
2019-04-16T06:17:31.783Z,4.82
2019-04-16T06:20:40.911Z,4.99
2019-04-16T06:23:49.318Z,5.19
2019-04-16T06:26:39.487Z,4.62
2019-04-16T06:29:29.475Z,5.66
2019-04-16T06:32:37.681Z,5.86
2019-04-16T06:35:45.891Z,6.11
2019-04-16T06:38:30.386Z,6.40
2019-04-16T06:41:42.154Z,6.65
2019-04-16T06:47:24.372Z,7.18
2019-04-16T06:50:03.812Z,7.40
2019-04-16T06:52:53.140Z,7.59
2019-04-16T06:55:46.308Z,7.82
2019-04-16T06:58:57.434Z,8.03
2019-04-16T07:02:10.549Z,8.22
2019-04-16T07:05:10.680Z,8.42
2019-04-16T07:08:18.360Z,7.94
2019-04-16T07:11:07.981Z,8.86
2019-04-16T07:13:42.192Z,9.09
2019-04-16T07:19:16.543Z,9.56
2019-04-16T07:21:57.823Z,9.80
2019-04-16T07:30:43.892Z,10.47
2019-04-16T07:36:41.309Z,10.74
2019-04-16T07:39:59.458Z,10.91
2019-04-16T07:46:47.133Z,11.40
2019-04-16T07:49:59.068Z,11.59
2019-04-16T07:53:05.141Z,11.68
2019-04-16T07:55:54.419Z,11.88
2019-04-16T07:58:44.023Z,12.33
2019-04-16T08:01:33.402Z,13.08
2019-04-16T08:04:29.055Z,13.83
2019-04-16T08:07:34.832Z,14.52
2019-04-16T08:10:06.899Z,15.25
2019-04-16T08:15:33.622Z,15.99
2019-04-16T08:18:08.786Z,16.79
2019-04-16T08:21:01.689Z,17.08
2019-04-16T08:27:10.886Z,17.81
2019-04-16T08:30:02.132Z,18.17
2019-04-16T08:35:45.436Z,18.24
2019-04-16T08:38:15.720Z,18.45
2019-04-16T08:41:05.572Z,18.76
2019-04-16T08:47:24.953Z,20.09
2019-04-16T08:49:55.303Z,20.09
2019-04-16T08:52:25.632Z,20.28
2019-04-16T08:55:35.966Z,20.36
2019-04-16T08:58:07.575Z,20.94
2019-04-16T09:00:38.900Z,21.43
2019-04-16T09:03:30.702Z,21.74
2019-04-16T09:06:04.615Z,21.99
2019-04-16T09:08:54.878Z,22.07
2019-04-16T09:12:10.257Z,22.12
2019-04-16T09:14:56.007Z,22.91
2019-04-16T09:18:21.695Z,23.58
2019-04-16T09:21:11.679Z,23.95
2019-04-16T09:24:19.917Z,24.78
2019-04-16T09:29:52.393Z,24.39
2019-04-16T09:36:11.831Z,24.22
2019-04-16T09:39:20.465Z,25.00
2019-04-16T09:41:52.477Z,25.32
2019-04-16T09:45:05.180Z,25.69
2019-04-16T09:48:06.172Z,24.87
2019-04-16T09:50:47.598Z,25.44
2019-04-16T09:53:40.045Z,25.23
2019-04-16T09:56:44.974Z,25.17
2019-04-16T09:59:34.166Z,25.74
2019-04-16T10:02:21.350Z,25.02
2019-04-16T10:05:10.747Z,25.03
2019-04-16T10:07:44.379Z,24.87
2019-04-16T10:10:33.796Z,25.14
2019-04-16T10:13:31.771Z,25.00
2019-04-16T10:15:56.966Z,24.69
2019-04-16T10:21:59.037Z,24.38
2019-04-16T10:25:10.188Z,24.40
2019-04-16T10:27:43.087Z,23.76
2019-04-16T10:30:42.124Z,24.00
2019-04-16T10:33:32.791Z,23.69
2019-04-16T10:36:24.595Z,22.92
2019-04-16T10:42:46.092Z,22.65
2019-04-16T10:46:09.694Z,21.77
2019-04-16T10:48:45.166Z,21.91
2019-04-16T10:51:53.418Z,21.99
2019-04-16T10:55:02.056Z,21.54
2019-04-16T10:58:10.297Z,21.05
2019-04-16T11:00:59.872Z,20.78
2019-04-16T11:03:40.966Z,20.47
2019-04-16T11:06:38.003Z,20.22
2019-04-16T11:09:23.751Z,20.26
2019-04-16T11:12:04.875Z,20.51
2019-04-16T11:14:35.489Z,20.36
2019-04-16T11:20:50.851Z,19.97
2019-04-16T11:23:56.169Z,19.89
2019-04-16T11:26:34.359Z,19.68
2019-04-16T11:29:15.802Z,19.67
2019-04-16T11:32:05.625Z,19.44
2019-04-16T11:35:18.724Z,19.86
2019-04-16T11:37:50.184Z,20.20
2019-04-16T11:40:42.259Z,20.30
2019-04-16T11:43:32.887Z,20.26
2019-04-16T11:46:22.284Z,20.31
2019-04-16T11:49:11.609Z,20.38
2019-04-16T11:51:42.118Z,20.19
2019-04-16T11:54:31.835Z,20.25
2019-04-16T11:57:21.205Z,20.20
2019-04-16T12:00:13.909Z,20.19
2019-04-16T12:03:22.116Z,20.05
2019-04-16T12:06:31.275Z,20.10
2019-04-16T12:09:41.943Z,20.13
2019-04-16T12:12:18.064Z,19.65
2019-04-16T12:15:16.283Z,19.40
2019-04-16T12:22:17.656Z,18.80
2019-04-16T12:28:47.763Z,18.30
2019-04-16T12:31:48.714Z,18.20
2019-04-16T12:34:52.373Z,18.24
2019-04-16T12:38:18.173Z,18.18
2019-04-16T12:41:27.379Z,17.65
2019-04-16T12:44:45.186Z,17.64
2019-04-16T12:47:47.598Z,17.59
2019-04-16T12:50:56.147Z,17.71
2019-04-16T12:54:06.102Z,17.71
2019-04-16T12:56:55.437Z,19.38
2019-04-16T13:00:03.604Z,20.17
2019-04-16T13:03:16.456Z,19.94
2019-04-16T13:06:14.134Z,19.04
2019-04-16T13:12:17.122Z,18.42
2019-04-16T13:15:23.733Z,18.29
2019-04-16T13:18:27.683Z,18.16
2019-04-16T13:21:16.882Z,18.13
2019-04-16T13:24:25.076Z,18.73
2019-04-16T13:27:14.351Z,18.19
2019-04-16T13:29:44.754Z,19.19
2019-04-16T13:32:41.388Z,19.70
2019-04-16T13:41:41.117Z,20.80
2019-04-16T13:44:11.963Z,20.23
2019-04-16T13:46:44.461Z,19.75
2019-04-16T13:49:33.598Z,19.30
2019-04-16T13:52:08.135Z,19.02
2019-04-16T13:54:57.732Z,18.89
2019-04-16T13:57:30.413Z,18.75
2019-04-16T14:00:42.774Z,18.52
2019-04-16T14:03:33.310Z,18.28
2019-04-16T14:09:59.206Z,18.46
2019-04-16T14:12:48.825Z,19.13
2019-04-16T14:15:31.716Z,18.60
2019-04-16T14:17:56.423Z,20.31
2019-04-16T14:20:27.039Z,22.20
2019-04-16T14:23:19.709Z,23.52
2019-04-16T14:26:10.886Z,22.98
2019-04-16T14:32:14.805Z,24.69
2019-04-16T14:35:06.002Z,25.56
2019-04-16T14:37:36.447Z,25.90
2019-04-16T14:40:27.192Z,26.74
2019-04-16T14:43:29.404Z,26.89
2019-04-16T14:46:00.607Z,25.83
2019-04-16T14:48:31.825Z,24.55
2019-04-16T14:51:23.004Z,21.62
2019-04-16T14:54:31.241Z,21.14
2019-04-16T14:57:20.886Z,21.87
2019-04-16T15:00:31.246Z,21.34
2019-04-16T15:03:34.856Z,20.55
2019-04-16T15:06:17.039Z,19.73
2019-04-16T15:09:28.223Z,19.26
2019-04-16T15:12:26.584Z,19.30
2019-04-16T15:15:15.735Z,18.77
2019-04-16T15:18:26.710Z,18.66
2019-04-16T15:21:33.763Z,18.21
2019-04-16T15:24:41.933Z,18.80
2019-04-16T15:27:31.612Z,18.36
2019-04-16T15:30:21.314Z,17.92
2019-04-16T15:33:11.961Z,17.68
2019-04-16T15:39:21.823Z,16.84
2019-04-16T15:42:30.020Z,17.02
2019-04-16T15:45:25.511Z,16.98
2019-04-16T15:48:37.408Z,16.91
2019-04-16T15:51:34.925Z,16.89
2019-04-16T15:54:24.203Z,16.60
2019-04-16T15:57:32.658Z,16.45
2019-04-16T16:00:20.734Z,16.31
2019-04-16T16:03:29.204Z,16.35
2019-04-16T16:06:22.224Z,16.31
2019-04-16T16:09:47.967Z,16.10
2019-04-16T16:12:24.874Z,16.09
2019-04-16T16:15:16.599Z,16.12
2019-04-16T16:18:24.817Z,16.14
2019-04-16T16:21:14.326Z,16.18
2019-04-16T16:24:07.975Z,16.20
2019-04-16T16:26:49.089Z,16.26
2019-04-16T16:29:38.667Z,16.15
2019-04-16T16:32:18.865Z,16.02
2019-04-16T16:35:08.529Z,15.91
2019-04-16T16:37:58.154Z,15.83
2019-04-16T16:41:11.516Z,15.74
2019-04-16T16:47:28.337Z,15.56
2019-04-16T16:50:02.396Z,15.49
2019-04-16T16:53:19.785Z,15.48
2019-04-16T16:56:51.015Z,15.35
2019-04-16T17:00:20.765Z,15.34
2019-04-16T17:02:56.229Z,15.25
2019-04-16T17:05:45.860Z,15.25
2019-04-16T17:08:16.292Z,15.22
2019-04-16T17:11:16.312Z,15.13
2019-04-16T17:13:58.037Z,15.07
2019-04-16T17:16:52.115Z,15.01
2019-04-16T17:19:22.408Z,15.00
2019-04-16T17:21:52.731Z,14.89
2019-04-16T17:24:23.446Z,14.79
2019-04-16T17:26:53.774Z,14.76
2019-04-16T17:29:24.650Z,14.68
2019-04-16T17:32:13.764Z,14.72
2019-04-16T17:34:47.834Z,14.70
2019-04-16T17:37:41.537Z,14.72
2019-04-16T17:40:38.018Z,14.70
2019-04-16T17:43:59.703Z,14.78
2019-04-16T17:46:58.220Z,14.87
2019-04-16T17:49:53.495Z,14.75
2019-04-16T17:56:01.894Z,14.69
2019-04-16T17:58:57.144Z,14.69
2019-04-16T18:02:05.407Z,14.60
2019-04-16T18:04:56.201Z,14.50
2019-04-16T18:08:05.591Z,14.46
2019-04-16T18:10:58.673Z,14.52
2019-04-16T18:13:48.983Z,14.28
2019-04-16T18:16:49.990Z,14.32
2019-04-16T18:19:58.558Z,14.21
2019-04-16T18:22:47.969Z,14.12
2019-04-16T18:26:03.047Z,14.15
2019-04-16T18:29:15.530Z,14.00
2019-04-16T18:32:41.444Z,13.64
2019-04-16T18:35:51.891Z,13.82
2019-04-16T18:39:22.463Z,13.84
2019-04-16T18:42:22.265Z,13.86
2019-04-16T18:45:08.964Z,13.91
2019-04-16T18:48:04.530Z,13.76
2019-04-16T18:51:01.969Z,13.65
2019-04-16T18:53:36.329Z,13.66
2019-04-16T18:56:29.639Z,13.59
2019-04-16T18:59:56.217Z,13.59
2019-04-16T19:02:28.941Z,13.50
2019-04-16T19:05:40.370Z,13.62
2019-04-16T19:08:41.702Z,13.57
2019-04-16T19:11:28.825Z,13.50
2019-04-16T19:14:37.228Z,13.45
2019-04-16T19:17:35.511Z,13.48
2019-04-16T19:20:33.632Z,13.50
2019-04-16T19:23:30.930Z,13.47
2019-04-16T19:26:14.458Z,13.45
2019-04-16T19:29:42.826Z,13.37
2019-04-16T19:35:26.073Z,13.26
2019-04-16T19:38:15.739Z,13.19
2019-04-16T19:41:12.521Z,13.08
2019-04-16T19:44:06.385Z,13.09
2019-04-16T19:49:56.439Z,12.79
2019-04-16T19:56:27.454Z,12.53
2019-04-16T20:03:09.309Z,12.51
2019-04-16T20:06:26.615Z,11.92
2019-04-16T20:13:09.733Z,12.43
2019-04-16T20:16:16.616Z,12.30
2019-04-16T20:21:37.704Z,12.31
2019-04-16T20:24:20.570Z,12.40
2019-04-16T20:27:24.123Z,12.39
2019-04-16T20:29:45.765Z,12.42
2019-04-16T20:32:34.141Z,12.54
2019-04-16T20:35:02.871Z,12.42
2019-04-16T20:37:55.938Z,12.41
2019-04-16T20:40:30.136Z,12.52
2019-04-16T20:43:03.795Z,12.37
2019-04-16T20:45:59.201Z,12.25
2019-04-16T20:49:08.792Z,12.21
2019-04-16T20:55:23.776Z,12.29
2019-04-16T21:04:12.917Z,11.78
2019-04-16T21:06:44.217Z,11.65
2019-04-16T21:09:30.014Z,11.60
2019-04-16T21:12:26.716Z,11.52
2019-04-16T21:15:17.043Z,11.49
2019-04-16T21:17:50.787Z,11.46
2019-04-16T21:26:26.026Z,11.34
2019-04-16T21:29:23.405Z,11.34
2019-04-16T21:32:09.684Z,11.37
2019-04-16T21:35:00.927Z,11.28
2019-04-16T21:37:50.453Z,11.14
2019-04-16T21:40:39.936Z,11.25
2019-04-16T21:43:35.729Z,11.22
2019-04-16T21:46:26.396Z,11.23
2019-04-16T21:49:20.560Z,11.18
2019-04-16T21:55:05.058Z,11.09
2019-04-16T21:58:03.597Z,11.06
2019-04-16T22:09:59.049Z,10.84
2019-04-16T22:12:31.982Z,10.66
2019-04-16T22:15:25.499Z,10.62
2019-04-16T22:21:25.526Z,10.71
2019-04-16T22:26:55.490Z,10.64
2019-04-16T22:29:26.127Z,10.65
2019-04-16T22:31:59.041Z,10.63
2019-04-16T22:38:13.247Z,10.58
2019-04-16T22:41:16.872Z,10.59
2019-04-16T22:44:02.608Z,10.50
2019-04-16T22:47:03.123Z,10.43
2019-04-16T22:49:35.350Z,10.39
2019-04-16T22:54:55.717Z,10.40
2019-04-16T22:57:27.101Z,10.38
2019-04-16T22:59:57.463Z,10.39
2019-04-16T23:02:31.046Z,10.32
2019-04-16T23:05:01.651Z,10.27
2019-04-16T23:10:50.591Z,10.22
2019-04-16T23:13:20.608Z,10.30
2019-04-16T23:15:51.234Z,10.29
2019-04-16T23:18:40.604Z,10.33
2019-04-16T23:21:35.663Z,10.34
2019-04-16T23:24:25.397Z,10.30
2019-04-16T23:27:04.125Z,9.82
2019-04-16T23:29:32.011Z,10.33
2019-04-16T23:32:12.752Z,10.31
2019-04-16T23:35:24.965Z,10.30
2019-04-16T23:38:15.764Z,10.24
2019-04-16T23:41:05.643Z,10.29
2019-04-16T23:44:05.776Z,10.24
2019-04-16T23:49:53.387Z,10.18
2019-04-16T23:53:03.769Z,10.13
2019-04-16T23:55:56.074Z,10.14
2019-04-16T23:58:30.334Z,10.19
